Time;durP1;ratioP1;P1;durP2;ratioP2;P2;SDS_P1;SDS_P2;PMS_P1;PMS_P2;Temp;Humidity;BMP_temperature;BMP_pressure;BME280_temperature;BME280_humidity;BME280_pressure;Samples;Min_cycle;Max_cycle;Signal;HPM_P1;HPM_P2
2022/09/14 00:01:15;;;;;;;0.65;0.60;;;23.30;61.30;;;;;;5106981;28;20114;-35
2022/09/14 00:03:41;;;;;;;3.78;0.65;;;23.20;60.80;;;;;;5092685;28;20093;-44
2022/09/14 00:06:09;;;;;;;4.67;0.90;;;23.20;60.30;;;;;;5107068;28;20031;-42
2022/09/14 00:08:36;;;;;;;2.45;0.68;;;23.20;60.30;;;;;;5117576;28;20095;-43
2022/09/14 00:11:06;;;;;;;1.00;0.63;;;23.20;60.40;;;;;;5108906;28;20032;-35
2022/09/14 00:13:33;;;;;;;0.90;0.70;;;23.10;60.50;;;;;;5099444;28;20051;-33
2022/09/14 00:16:06;;;;;;;0.77;0.50;;;23.10;60.30;;;;;;5103196;28;20118;-34
2022/09/14 00:18:33;;;;;;;1.95;0.60;;;23.10;59.90;;;;;;5106485;28;20047;-35
2022/09/14 00:21:01;;;;;;;1.08;0.65;;;23.10;59.90;;;;;;5106965;28;20028;-33
2022/09/14 00:23:27;;;;;;;1.65;0.60;;;23.00;59.90;;;;;;5109112;28;20044;-33
2022/09/14 00:25:53;;;;;;;2.53;0.80;;;22.90;59.40;;;;;;5110758;28;20122;-33
2022/09/14 00:28:19;;;;;;;2.17;0.63;;;22.90;59.30;;;;;;5100024;28;20036;-33
2022/09/14 00:30:46;;;;;;;0.80;0.60;;;22.90;59.40;;;;;;5106086;28;20036;-33
2022/09/14 00:33:12;;;;;;;1.25;0.60;;;22.80;59.30;;;;;;5109968;28;20047;-33
2022/09/14 00:35:39;;;;;;;5.05;0.90;;;22.80;59.10;;;;;;5105700;28;20032;-33
2022/09/14 00:38:06;;;;;;;1.58;0.80;;;22.70;59.20;;;;;;5121590;28;20031;-33
2022/09/14 00:40:32;;;;;;;1.60;1.00;;;22.70;59.30;;;;;;5112759;28;20047;-33
2022/09/14 00:42:58;;;;;;;2.65;0.90;;;22.70;59.40;;;;;;5096033;28;20029;-33
2022/09/14 00:45:26;;;;;;;2.00;0.80;;;22.60;59.20;;;;;;5100630;28;20035;-33
2022/09/14 00:47:52;;;;;;;1.73;0.90;;;22.60;59.20;;;;;;5091660;28;20056;-33
2022/09/14 00:50:18;;;;;;;1.13;0.80;;;22.60;59.00;;;;;;5112783;28;20031;-33
2022/09/14 00:52:46;;;;;;;1.00;0.90;;;22.50;59.00;;;;;;5095905;28;20053;-33
2022/09/14 00:55:16;;;;;;;1.50;1.15;;;22.50;58.90;;;;;;5104975;28;20039;-33
2022/09/14 00:57:47;;;;;;;1.38;1.05;;;22.50;58.90;;;;;;5111254;28;20024;-34
2022/09/14 01:00:15;;;;;;;1.73;1.30;;;22.40;58.70;;;;;;5080846;28;20031;-33
2022/09/14 01:02:41;;;;;;;3.25;1.20;;;22.40;59.00;;;;;;5100187;28;20042;-34
2022/09/14 01:05:09;;;;;;;1.75;1.20;;;22.40;59.10;;;;;;5116095;28;20032;-34
2022/09/14 01:07:54;;;;;;;2.67;1.20;;;22.40;59.10;;;;;;5084668;28;20576;-33
2022/09/14 01:10:36;;;;;;;1.50;0.90;;;22.40;59.00;;;;;;5112278;28;20039;-34
2022/09/14 01:13:17;;;;;;;1.35;0.95;;;22.30;58.80;;;;;;5090459;28;20055;-33
2022/09/14 01:15:50;;;;;;;2.63;0.90;;;22.30;58.90;;;;;;5096098;28;20040;-34
2022/09/14 01:18:35;;;;;;;1.20;0.70;;;22.30;58.70;;;;;;5108709;28;20035;-33
2022/09/14 01:21:06;;;;;;;1.17;0.95;;;22.20;58.40;;;;;;5103062;28;20033;-33
2022/09/14 01:24:10;;;;;;;1.00;0.90;;;22.20;58.50;;;;;;5088635;28;20454;-33
2022/09/14 01:26:55;;;;;;;1.00;0.75;;;22.20;58.50;;;;;;5097016;28;20113;-34
2022/09/14 01:29:44;;;;;;;1.45;1.00;;;22.10;58.50;;;;;;5118216;28;20030;-33
2022/09/14 01:32:21;;;;;;;1.67;1.08;;;22.00;58.30;;;;;;5119580;28;20059;-33
2022/09/14 01:34:53;;;;;;;1.05;0.85;;;22.00;58.40;;;;;;5101481;28;20089;-33
2022/09/14 01:37:25;;;;;;;1.17;1.08;;;22.00;58.40;;;;;;5113067;28;20563;-34
2022/09/14 01:39:54;;;;;;;1.17;0.82;;;21.90;58.40;;;;;;5081693;28;20042;-33
2022/09/14 01:42:21;;;;;;;1.73;0.85;;;21.90;58.40;;;;;;5075049;28;20035;-33
2022/09/14 01:44:48;;;;;;;1.70;0.90;;;21.90;58.50;;;;;;5081150;28;20032;-32
2022/09/14 01:47:46;;;;;;;1.20;0.88;;;21.80;58.40;;;;;;5094437;28;20062;-33
2022/09/14 01:50:30;;;;;;;1.38;1.02;;;21.80;58.30;;;;;;5085307;28;20427;-33
2022/09/14 01:53:08;;;;;;;1.75;0.85;;;21.70;58.40;;;;;;5111942;28;20012;-33
2022/09/14 01:56:03;;;;;;;0.88;0.80;;;21.70;58.40;;;;;;5102706;28;20036;-33
2022/09/14 01:58:52;;;;;;;0.95;0.75;;;21.70;58.40;;;;;;5096069;28;20621;-33
2022/09/14 02:01:23;;;;;;;1.42;0.80;;;21.60;58.40;;;;;;5084458;28;20036;-33
2022/09/14 02:03:54;;;;;;;0.88;0.85;;;21.60;58.40;;;;;;5093800;28;20024;-34
2022/09/14 02:06:43;;;;;;;1.35;0.82;;;21.60;58.40;;;;;;5082573;28;20020;-33
2022/09/14 02:09:09;;;;;;;;;;;21.50;58.40;;;;;;5094969;28;20677;-33
2022/09/14 02:11:36;;;;;;;0.90;0.75;;;21.50;58.80;;;;;;5083605;28;19908;-32
2022/09/14 02:14:02;;;;;;;;;;;21.40;58.50;;;;;;5106086;28;20039;-33
2022/09/14 02:16:28;;;;;;;1.13;0.80;;;21.40;58.70;;;;;;5110373;28;19916;-32
2022/09/14 02:18:55;;;;;;;1.00;0.90;;;21.30;58.50;;;;;;5103347;28;20028;-33
2022/09/14 02:21:25;;;;;;;1.02;0.80;;;21.30;58.40;;;;;;5099922;28;20028;-33
2022/09/14 02:23:52;;;;;;;0.93;0.80;;;21.20;58.40;;;;;;5114453;28;20028;-33
2022/09/14 02:26:19;;;;;;;1.20;1.00;;;21.20;58.40;;;;;;5104672;28;20058;-33
2022/09/14 02:28:45;;;;;;;0.80;0.80;;;21.20;58.40;;;;;;5102119;28;20024;-32
2022/09/14 02:31:33;;;;;;;1.48;0.93;;;21.10;58.30;;;;;;5099913;28;20052;-33
2022/09/14 02:34:07;;;;;;;0.98;0.70;;;21.10;58.30;;;;;;5082418;28;20040;-33
2022/09/14 02:36:52;;;;;;;0.95;0.80;;;21.00;58.20;;;;;;5074013;28;20801;-33
2022/09/14 02:39:35;;;;;;;0.73;0.60;;;21.00;58.30;;;;;;5086142;28;20032;-32
2022/09/14 02:42:35;;;;;;;1.48;0.90;;;20.90;58.20;;;;;;5061221;28;20046;-33
2022/09/14 02:45:22;;;;;;;2.15;0.70;;;20.90;58.30;;;;;;5083833;28;20408;-33
2022/09/14 02:48:03;;;;;;;0.50;0.50;;;20.90;58.40;;;;;;5079408;28;20047;-34
2022/09/14 02:51:00;;;;;;;1.55;0.70;;;20.80;58.30;;;;;;5098140;28;20028;-34
2022/09/14 02:53:51;;;;;;;0.93;0.73;;;20.80;58.30;;;;;;5088852;28;20118;-35
2022/09/14 02:56:17;;;;;;;0.80;0.70;;;20.70;58.20;;;;;;5079287;28;20086;-35
2022/09/14 02:58:44;;;;;;;1.35;0.88;;;20.70;58.20;;;;;;5088352;28;20037;-35
2022/09/14 03:01:12;;;;;;;0.70;0.50;;;20.60;58.10;;;;;;5080372;28;20025;-35
2022/09/14 03:03:38;;;;;;;0.93;0.80;;;20.60;58.00;;;;;;5088962;28;20282;-35
2022/09/14 03:06:05;;;;;;;0.68;0.60;;;20.60;58.00;;;;;;5082891;28;20024;-35
2022/09/14 03:08:31;;;;;;;1.10;0.75;;;20.60;58.10;;;;;;5068281;28;20032;-35
2022/09/14 03:10:57;;;;;;;0.63;0.60;;;20.50;58.20;;;;;;5085244;28;20080;-35
2022/09/14 03:13:23;;;;;;;0.93;0.60;;;20.50;58.20;;;;;;5084644;28;20041;-34
2022/09/14 03:15:49;;;;;;;0.60;0.60;;;20.50;58.20;;;;;;5086005;28;20033;-35
2022/09/14 03:18:16;;;;;;;0.60;0.60;;;20.50;58.30;;;;;;5083305;28;20032;-36
2022/09/14 03:20:42;;;;;;;0.88;0.60;;;20.40;58.30;;;;;;5084886;28;20063;-35
2022/09/14 03:23:10;;;;;;;0.90;0.70;;;20.40;58.40;;;;;;5089303;28;20439;-35
2022/09/14 03:25:37;;;;;;;;;;;20.30;58.50;;;;;;5091713;28;20029;-35
2022/09/14 03:28:03;;;;;;;0.70;0.70;;;20.30;59.00;;;;;;5087968;28;19919;-34
2022/09/14 03:30:29;;;;;;;0.63;0.63;;;20.20;59.20;;;;;;5068792;28;20029;-35
2022/09/14 03:32:57;;;;;;;0.90;0.60;;;20.20;59.10;;;;;;5114216;28;20047;-34
2022/09/14 03:35:24;;;;;;;1.17;0.93;;;20.20;59.10;;;;;;5118919;28;20038;-36
2022/09/14 03:37:50;;;;;;;0.75;0.60;;;20.10;59.00;;;;;;5114448;28;20030;-36
2022/09/14 03:40:17;;;;;;;0.65;0.60;;;20.10;58.90;;;;;;5115275;28;20048;-36
2022/09/14 03:42:47;;;;;;;0.60;0.60;;;20.10;58.90;;;;;;5115740;28;20031;-36
2022/09/14 03:45:13;;;;;;;1.23;0.60;;;20.00;58.80;;;;;;5121068;28;20031;-36
2022/09/14 03:47:40;;;;;;;0.85;0.60;;;20.00;58.80;;;;;;5118811;28;20039;-36
2022/09/14 03:50:07;;;;;;;0.45;0.30;;;20.00;58.80;;;;;;5112557;28;20031;-36
2022/09/14 03:52:34;;;;;;;0.77;0.60;;;20.00;58.70;;;;;;5104491;28;20092;-37
2022/09/14 03:55:00;;;;;;;0.50;0.50;;;19.90;58.80;;;;;;5112379;28;20039;-37
2022/09/14 03:57:26;;;;;;;0.60;0.60;;;19.90;58.80;;;;;;5099565;28;20019;-36
2022/09/14 03:59:52;;;;;;;0.45;0.45;;;19.90;58.90;;;;;;5096153;28;20043;-36
2022/09/14 04:02:18;;;;;;;0.60;0.50;;;19.80;58.90;;;;;;5103989;28;20031;-37
2022/09/14 04:04:47;;;;;;;0.85;0.55;;;19.80;59.00;;;;;;5112470;28;20032;-36
2022/09/14 04:07:14;;;;;;;1.33;0.60;;;19.80;59.20;;;;;;5120683;28;20040;-36
2022/09/14 04:09:41;;;;;;;0.88;0.65;;;19.80;59.30;;;;;;5104137;28;20500;-36
2022/09/14 04:12:07;;;;;;;0.68;0.57;;;19.70;59.30;;;;;;5105077;28;20043;-36
2022/09/14 04:14:33;;;;;;;0.70;0.70;;;19.70;59.50;;;;;;5102763;28;20059;-36
2022/09/14 04:16:59;;;;;;;0.60;0.60;;;19.70;59.80;;;;;;5112943;28;20275;-36
2022/09/14 04:19:26;;;;;;;1.17;0.70;;;19.70;59.80;;;;;;5113379;28;20646;-37
2022/09/14 04:21:52;;;;;;;0.63;0.60;;;19.70;59.90;;;;;;5106976;28;20365;-36
2022/09/14 04:24:18;;;;;;;0.60;0.60;;;19.70;60.00;;;;;;5115565;28;20028;-37
2022/09/14 04:26:44;;;;;;;0.80;0.80;;;19.70;60.30;;;;;;5104173;28;20085;-35
2022/09/14 04:29:11;;;;;;;0.63;0.60;;;19.60;60.30;;;;;;5118095;28;20027;-36
2022/09/14 04:31:37;;;;;;;0.70;0.70;;;19.60;60.50;;;;;;5088490;28;20076;-35
2022/09/14 04:34:03;;;;;;;0.65;0.65;;;19.60;60.70;;;;;;5109054;28;20047;-34
2022/09/14 04:36:30;;;;;;;0.60;0.50;;;19.60;60.80;;;;;;5108466;28;20096;-34
2022/09/14 04:39:00;;;;;;;0.70;0.70;;;19.60;61.00;;;;;;5103938;28;20051;-34
2022/09/14 04:41:27;;;;;;;0.98;0.60;;;19.60;61.10;;;;;;5090451;28;20602;-34
2022/09/14 04:43:54;;;;;;;0.60;0.60;;;19.60;61.20;;;;;;5108304;28;20032;-34
2022/09/14 04:46:28;;;;;;;0.85;0.70;;;19.60;61.40;;;;;;5115533;28;20020;-34
2022/09/14 04:48:54;;;;;;;0.70;0.70;;;19.60;61.50;;;;;;5105391;28;20036;-34
2022/09/14 04:51:22;;;;;;;1.05;0.70;;;19.50;61.50;;;;;;5111972;28;20059;-34
2022/09/14 04:53:50;;;;;;;0.65;0.60;;;19.60;61.70;;;;;;5107304;28;20032;-35
2022/09/14 04:56:16;;;;;;;0.82;0.70;;;19.50;61.80;;;;;;5105460;28;20028;-35
2022/09/14 04:58:47;;;;;;;0.63;0.52;;;19.60;62.00;;;;;;5102817;28;20042;-35
2022/09/14 05:01:15;;;;;;;0.60;0.60;;;19.50;62.10;;;;;;5103726;28;20028;-35
2022/09/14 05:03:42;;;;;;;1.23;0.68;;;19.50;62.20;;;;;;5106394;28;20028;-34
2022/09/14 05:06:19;;;;;;;0.60;0.60;;;19.50;62.30;;;;;;5099229;28;20043;-35
2022/09/14 05:08:46;;;;;;;0.98;0.70;;;19.50;62.40;;;;;;5112289;28;20027;-34
2022/09/14 05:11:13;;;;;;;1.05;0.70;;;19.50;62.50;;;;;;5088701;28;20051;-35
2022/09/14 05:13:40;;;;;;;0.77;0.77;;;19.50;62.70;;;;;;5084211;28;20044;-35
2022/09/14 05:16:09;;;;;;;0.85;0.77;;;19.50;62.80;;;;;;5104336;28;20032;-35
2022/09/14 05:18:35;;;;;;;0.68;0.60;;;19.50;62.80;;;;;;5102634;28;20032;-35
2022/09/14 05:21:07;;;;;;;0.80;0.80;;;19.50;63.00;;;;;;5103459;28;20025;-35
2022/09/14 05:23:33;;;;;;;1.15;0.75;;;19.50;63.00;;;;;;5090828;28;20020;-35
2022/09/14 05:26:20;;;;;;;0.93;0.80;;;19.50;63.20;;;;;;5056754;28;20055;-35
2022/09/14 05:28:50;;;;;;;1.05;0.80;;;19.50;63.40;;;;;;5049537;28;20043;-35
2022/09/14 05:31:16;;;;;;;1.13;0.75;;;19.50;63.60;;;;;;5059725;28;20142;-35
2022/09/14 05:33:42;;;;;;;0.60;0.60;;;19.50;63.70;;;;;;5057398;28;20044;-35
2022/09/14 05:36:09;;;;;;;0.85;0.77;;;19.50;63.80;;;;;;5068013;28;20024;-35
2022/09/14 05:38:36;;;;;;;1.15;1.00;;;19.50;63.80;;;;;;5052252;28;20529;-35
2022/09/14 05:41:02;;;;;;;;;;;19.50;63.80;;;;;;5054506;28;20174;-35
2022/09/14 05:43:29;;;;;;;0.75;0.60;;;19.50;63.80;;;;;;5057328;28;19934;-35
2022/09/14 05:45:55;;;;;;;0.77;0.73;;;19.40;63.90;;;;;;5058958;28;20029;-35
2022/09/14 05:48:21;;;;;;;1.57;0.73;;;19.50;64.10;;;;;;5059161;28;20881;-35
2022/09/14 05:50:47;;;;;;;0.85;0.80;;;19.40;64.20;;;;;;5053203;28;20090;-35
2022/09/14 05:53:13;;;;;;;1.30;0.80;;;19.50;64.30;;;;;;5052613;28;20037;-38
2022/09/14 05:55:39;;;;;;;0.82;0.80;;;19.40;64.20;;;;;;5055819;28;20033;-35
2022/09/14 05:58:05;;;;;;;1.63;1.00;;;19.40;64.20;;;;;;5052674;28;20044;-35
2022/09/14 06:00:32;;;;;;;1.00;0.90;;;19.40;64.20;;;;;;5056298;28;20048;-36
2022/09/14 06:02:58;;;;;;;1.08;0.93;;;19.40;64.40;;;;;;5065568;28;20090;-36
2022/09/14 06:05:24;;;;;;;1.58;0.98;;;19.50;64.60;;;;;;5081493;28;20028;-35
2022/09/14 06:07:53;;;;;;;1.15;0.80;;;19.50;64.60;;;;;;5095351;28;20046;-36
2022/09/14 06:10:20;;;;;;;0.95;0.73;;;19.50;64.70;;;;;;5082289;28;20051;-35
2022/09/14 06:12:46;;;;;;;1.17;1.00;;;19.50;64.60;;;;;;5061676;28;20063;-36
2022/09/14 06:15:12;;;;;;;1.25;1.00;;;19.50;64.70;;;;;;5092016;28;20311;-35
2022/09/14 06:17:38;;;;;;;1.10;1.00;;;19.50;64.70;;;;;;5088086;28;20036;-35
2022/09/14 06:20:06;;;;;;;1.38;1.00;;;19.50;64.80;;;;;;5089087;28;20634;-36
2022/09/14 06:22:32;;;;;;;1.95;1.08;;;19.50;65.00;;;;;;5085953;28;20055;-36
2022/09/14 06:24:59;;;;;;;1.23;0.80;;;19.50;65.00;;;;;;5085046;28;20063;-36
2022/09/14 06:27:26;;;;;;;2.60;1.35;;;19.50;65.10;;;;;;5081692;28;20052;-36
2022/09/14 06:29:53;;;;;;;1.00;0.90;;;19.50;65.30;;;;;;5078899;28;20032;-37
2022/09/14 06:32:19;;;;;;;2.70;0.70;;;19.50;65.20;;;;;;5097043;28;20040;-37
2022/09/14 06:34:45;;;;;;;1.40;1.20;;;19.50;65.30;;;;;;5106194;28;20039;-37
2022/09/14 06:37:12;;;;;;;0.80;0.80;;;19.50;65.40;;;;;;5098816;28;20017;-36
2022/09/14 06:39:38;;;;;;;2.08;1.05;;;19.50;65.50;;;;;;5109007;28;20039;-36
2022/09/14 06:42:04;;;;;;;1.25;1.13;;;19.50;65.70;;;;;;5112525;28;20032;-36
2022/09/14 06:44:30;;;;;;;1.00;0.90;;;19.50;65.90;;;;;;5093183;28;20023;-37
2022/09/14 06:46:56;;;;;;;1.23;1.00;;;19.50;65.80;;;;;;5093400;28;20084;-37
2022/09/14 06:49:23;;;;;;;1.17;1.07;;;19.50;66.10;;;;;;5106045;28;20039;-37
2022/09/14 06:51:49;;;;;;;1.77;1.10;;;19.50;66.20;;;;;;5105796;28;20165;-37
2022/09/14 06:54:17;;;;;;;2.88;1.00;;;19.50;66.30;;;;;;5105478;28;20089;-37
2022/09/14 06:56:43;;;;;;;;;;;19.50;66.20;;;;;;5107462;28;20055;-37
2022/09/14 06:59:11;;;;;;;0.88;0.75;;;19.50;66.30;;;;;;5108610;28;20015;-37
2022/09/14 07:01:37;;;;;;;1.13;0.98;;;19.50;66.20;;;;;;5111306;28;20036;-38
2022/09/14 07:04:04;;;;;;;1.60;1.20;;;19.50;66.30;;;;;;5104386;28;20062;-37
2022/09/14 07:06:32;;;;;;;1.83;1.00;;;19.50;66.70;;;;;;5106374;28;20036;-37
2022/09/14 07:08:58;;;;;;;2.08;1.20;;;19.50;66.40;;;;;;5122541;28;20032;-38
2022/09/14 07:11:26;;;;;;;1.33;1.00;;;19.50;66.80;;;;;;5103035;28;20032;-37
2022/09/14 07:13:53;;;;;;;1.05;0.80;;;19.50;66.70;;;;;;5092610;28;20128;-37
2022/09/14 07:16:20;;;;;;;1.40;0.98;;;19.50;66.50;;;;;;5110691;28;20053;-39
2022/09/14 07:18:46;;;;;;;2.45;0.77;;;19.50;66.50;;;;;;5113189;28;20032;-37
2022/09/14 07:21:16;;;;;;;1.13;0.80;;;19.50;66.50;;;;;;5103336;28;20032;-35
2022/09/14 07:23:43;;;;;;;1.02;0.93;;;19.50;66.60;;;;;;5110097;28;20040;-35
2022/09/14 07:26:10;;;;;;;1.60;1.10;;;19.50;66.70;;;;;;5103960;28;20832;-36
2022/09/14 07:28:36;;;;;;;1.40;1.15;;;19.50;66.80;;;;;;5097844;28;20032;-36
2022/09/14 07:31:03;;;;;;;1.50;1.00;;;19.50;66.90;;;;;;5112097;28;20040;-35
2022/09/14 07:33:29;;;;;;;2.35;1.10;;;19.50;67.10;;;;;;5107290;28;20130;-36
2022/09/14 07:36:06;;;;;;;0.82;0.80;;;19.50;67.20;;;;;;5110883;28;20035;-36
2022/09/14 07:38:33;;;;;;;1.85;1.00;;;19.50;67.00;;;;;;5109436;28;20051;-36
2022/09/14 07:40:59;;;;;;;1.38;1.00;;;19.50;66.90;;;;;;5108505;28;20811;-35
2022/09/14 07:43:26;;;;;;;1.92;1.13;;;19.50;66.90;;;;;;5101525;28;20036;-36
2022/09/14 07:45:52;;;;;;;1.00;0.90;;;19.50;66.90;;;;;;5103627;28;20028;-37
2022/09/14 07:48:19;;;;;;;1.03;0.83;;;19.50;66.60;;;;;;5106416;28;20040;-36
2022/09/14 07:50:46;;;;;;;1.48;1.20;;;19.50;66.70;;;;;;5105388;28;20387;-36
2022/09/14 07:53:13;;;;;;;1.10;1.00;;;19.50;66.50;;;;;;5105748;28;20054;-37
2022/09/14 07:55:39;;;;;;;1.63;1.10;;;19.50;66.40;;;;;;5102467;28;20040;-38
2022/09/14 07:58:06;;;;;;;3.17;1.20;;;19.50;66.40;;;;;;5106138;28;20028;-37
2022/09/14 08:00:33;;;;;;;4.88;1.70;;;19.50;66.60;;;;;;5114657;28;20043;-37
2022/09/14 08:02:59;;;;;;;6.78;2.00;;;19.50;66.90;;;;;;5108208;28;20027;-36
2022/09/14 08:05:25;;;;;;;5.00;2.00;;;19.50;67.50;;;;;;5120539;28;20096;-37
2022/09/14 08:07:55;;;;;;;7.85;1.88;;;19.50;68.00;;;;;;5115767;28;20024;-36
2022/09/14 08:10:21;;;;;;;6.63;2.20;;;19.50;68.90;;;;;;5083984;28;20079;-37
2022/09/14 08:12:53;;;;;;;10.48;2.42;;;19.50;69.40;;;;;;5101378;28;20028;-36
2022/09/14 08:15:22;;;;;;;10.55;2.35;;;19.50;69.90;;;;;;5108113;28;20096;-37
2022/09/14 08:17:49;;;;;;;10.63;2.38;;;19.50;70.30;;;;;;5106824;28;20032;-36
2022/09/14 08:20:15;;;;;;;8.27;2.70;;;19.50;70.70;;;;;;5103994;28;20047;-37
2022/09/14 08:22:43;;;;;;;19.38;4.10;;;19.60;70.90;;;;;;5102330;28;20028;-35
2022/09/14 08:25:10;;;;;;;39.70;6.78;;;19.60;71.00;;;;;;5112482;28;20038;-36
2022/09/14 08:27:36;;;;;;;36.65;6.65;;;19.60;71.20;;;;;;5103988;28;20031;-35
2022/09/14 08:30:02;;;;;;;35.97;6.55;;;19.60;71.30;;;;;;5082442;28;20028;-35
2022/09/14 08:32:28;;;;;;;24.23;4.97;;;19.60;71.50;;;;;;5084618;28;20095;-36
2022/09/14 08:34:54;;;;;;;24.05;5.18;;;19.60;71.80;;;;;;5099699;28;20131;-36
2022/09/14 08:37:20;;;;;;;26.23;4.93;;;19.70;71.60;;;;;;5091771;28;20032;-35
2022/09/14 08:39:47;;;;;;;27.88;5.25;;;19.70;71.50;;;;;;5113244;28;20562;-36
2022/09/14 08:42:21;;;;;;;19.08;5.05;;;19.70;71.20;;;;;;5117612;28;20028;-36
2022/09/14 08:44:56;;;;;;;19.33;4.65;;;19.70;71.40;;;;;;5075088;28;20020;-36
2022/09/14 08:47:26;;;;;;;20.55;5.10;;;19.70;71.30;;;;;;5103268;28;20107;-38
2022/09/14 08:50:11;;;;;;;15.57;4.43;;;19.70;71.20;;;;;;5091234;28;20055;-36
2022/09/14 08:52:42;;;;;;;14.93;3.90;;;19.70;71.10;;;;;;5111287;28;20766;-36
2022/09/14 08:55:32;;;;;;;15.73;4.43;;;19.70;71.00;;;;;;5105457;28;20043;-36
2022/09/14 08:58:49;;;;;;;21.35;4.60;;;19.70;70.60;;;;;;5085785;28;20067;-36
2022/09/14 09:01:38;;;;;;;19.45;4.45;;;19.70;70.30;;;;;;5040194;28;20061;-36
2022/09/14 09:04:33;;;;;;;13.57;3.95;;;19.70;70.00;;;;;;5009479;28;20456;-37
2022/09/14 09:07:01;;;;;;;17.50;4.28;;;19.70;69.60;;;;;;5040541;28;20598;-36
2022/09/14 09:09:42;;;;;;;14.45;4.18;;;19.70;69.50;;;;;;5039937;28;20037;-36
2022/09/14 09:12:15;;;;;;;15.23;3.97;;;19.70;69.30;;;;;;5046068;28;20037;-36
2022/09/14 09:15:27;;;;;;;18.10;4.25;;;19.70;69.10;;;;;;5029622;28;20064;-36
2022/09/14 09:17:59;;;;;;;15.10;4.05;;;19.70;68.90;;;;;;5037313;28;20041;-36
2022/09/14 09:20:29;;;;;;;9.32;3.55;;;19.70;68.80;;;;;;5019741;28;20139;-37
2022/09/14 09:23:05;;;;;;;9.50;3.13;;;19.70;68.70;;;;;;5051595;28;20052;-37
2022/09/14 09:25:53;;;;;;;12.85;3.55;;;19.70;68.60;;;;;;5026556;28;20037;-37
2022/09/14 09:28:19;;;;;;;14.85;3.60;;;19.70;68.50;;;;;;5024555;28;20090;-37
2022/09/14 09:30:45;;;;;;;13.95;3.22;;;19.70;68.40;;;;;;5031690;28;20572;-36
2022/09/14 09:33:23;;;;;;;11.70;3.50;;;19.70;68.30;;;;;;5043576;28;20041;-36
2022/09/14 09:35:52;;;;;;;10.18;3.35;;;19.70;68.30;;;;;;5042241;28;20286;-36
2022/09/14 09:38:23;;;;;;;10.95;3.20;;;19.70;68.10;;;;;;5079963;28;20792;-37
2022/09/14 09:41:20;;;;;;;9.20;3.15;;;19.70;68.10;;;;;;5097698;28;20036;-36
2022/09/14 09:44:05;;;;;;;11.13;3.40;;;19.60;68.00;;;;;;5068606;28;20110;-36
2022/09/14 09:46:50;;;;;;;10.68;3.30;;;19.60;68.00;;;;;;5093596;28;20060;-35
2022/09/14 09:49:31;;;;;;;8.25;3.00;;;19.60;67.90;;;;;;5090898;28;20053;-35
2022/09/14 09:52:16;;;;;;;7.10;2.70;;;19.60;67.80;;;;;;5093652;28;20028;-35
2022/09/14 09:54:47;;;;;;;8.10;3.35;;;19.60;67.80;;;;;;5075363;28;20047;-35
2022/09/14 09:57:29;;;;;;;8.98;3.00;;;19.60;67.70;;;;;;5097420;28;20027;-35
2022/09/14 10:00:20;;;;;;;7.38;2.92;;;19.60;67.60;;;;;;5099317;28;20028;-36
2022/09/14 10:02:47;;;;;;;7.82;2.90;;;19.60;67.60;;;;;;5095997;28;20036;-36
2022/09/14 10:05:13;;;;;;;10.60;3.10;;;19.60;67.60;;;;;;5093604;28;20023;-36
2022/09/14 10:07:49;;;;;;;9.25;2.92;;;19.60;67.50;;;;;;5096833;28;20326;-36
2022/09/14 10:10:17;;;;;;;6.72;2.80;;;19.60;67.50;;;;;;5091934;28;20724;-36
2022/09/14 10:12:55;;;;;;;7.93;3.40;;;19.60;67.50;;;;;;5089486;28;20036;-36
2022/09/14 10:15:25;;;;;;;7.57;2.60;;;19.60;67.40;;;;;;5101114;28;20404;-36
2022/09/14 10:18:04;;;;;;;7.53;2.50;;;19.60;67.40;;;;;;5102673;28;20032;-36
2022/09/14 10:20:30;;;;;;;5.75;2.58;;;19.60;67.40;;;;;;5106145;28;20185;-39
2022/09/14 10:22:56;;;;;;;6.82;2.28;;;19.60;67.30;;;;;;5095368;28;20021;-35
2022/09/14 10:25:24;;;;;;;5.32;2.72;;;19.60;67.30;;;;;;5089367;28;20019;-35
2022/09/14 10:27:53;;;;;;;11.02;2.22;;;19.60;67.50;;;;;;5097230;28;20032;-35
2022/09/14 10:30:42;;;;;;;9.50;2.30;;;19.60;67.60;;;;;;5099422;28;20041;-34
2022/09/14 10:33:09;;;;;;;;;;;19.60;68.00;;;;;;5102858;28;20036;-42
2022/09/14 10:35:35;;;;;;;5.60;2.05;;;19.60;67.90;;;;;;5079848;28;20641;-35
2022/09/14 10:38:32;;;;;;;5.88;1.63;;;19.60;68.10;;;;;;5095006;28;20455;-39
2022/09/14 10:41:21;;;;;;;5.38;2.15;;;19.60;68.40;;;;;;5083239;28;20028;-37
2022/09/14 10:44:09;;;;;;;8.00;2.20;;;19.60;68.50;;;;;;5101141;28;20157;-35
2022/09/14 10:46:56;;;;;;;5.80;2.13;;;19.60;68.60;;;;;;5084836;28;20051;-34
2022/09/14 10:49:30;;;;;;;4.78;1.90;;;19.60;68.60;;;;;;5082345;28;20043;-35
2022/09/14 10:52:17;;;;;;;7.13;2.00;;;19.60;68.60;;;;;;5085420;28;20023;-34
2022/09/14 10:54:56;;;;;;;6.22;1.92;;;19.60;68.70;;;;;;5101737;28;20043;-34
2022/09/14 10:57:38;;;;;;;3.63;1.90;;;19.60;68.80;;;;;;5101301;28;20024;-33
2022/09/14 11:00:11;;;;;;;4.70;2.10;;;19.60;68.80;;;;;;5072522;28;20060;-34
2022/09/14 11:02:41;;;;;;;5.15;1.85;;;19.60;68.80;;;;;;5063880;28;20028;-34
2022/09/14 11:05:31;;;;;;;3.78;1.98;;;19.60;68.80;;;;;;5096739;28;20050;-34
2022/09/14 11:08:09;;;;;;;3.25;1.80;;;19.60;68.90;;;;;;5101506;28;20028;-34
2022/09/14 11:10:38;;;;;;;;;;;19.60;68.90;;;;;;5102316;28;20093;-35
2022/09/14 11:13:06;;;;;;;;;;;19.60;68.80;;;;;;5095108;28;19972;-34
2022/09/14 11:15:56;;;;;;;3.05;1.90;;;19.60;68.90;;;;;;5082609;28;19934;-34
2022/09/14 11:18:37;;;;;;;4.35;1.70;;;19.60;69.00;;;;;;5105141;28;20032;-34
2022/09/14 11:21:08;;;;;;;2.80;1.75;;;19.60;69.00;;;;;;5087143;28;20031;-34
2022/09/14 11:23:41;;;;;;;2.22;1.50;;;19.60;69.00;;;;;;5104978;28;20032;-38
2022/09/14 11:26:16;;;;;;;2.22;1.63;;;19.60;69.00;;;;;;5094653;28;20024;-35
2022/09/14 11:28:48;;;;;;;3.38;1.55;;;19.60;68.90;;;;;;5070649;28;20028;-34
2022/09/14 11:31:22;;;;;;;2.28;1.60;;;19.60;68.90;;;;;;5116102;28;20052;-34
2022/09/14 11:34:21;;;;;;;2.30;1.60;;;19.60;68.90;;;;;;5106461;28;20039;-34
2022/09/14 11:36:59;;;;;;;4.10;1.73;;;19.60;69.00;;;;;;5005846;28;20537;-35
2022/09/14 11:39:28;;;;;;;;;;;19.60;69.70;;;;;;4990870;28;20918;-34
2022/09/14 11:41:57;;;;;;;2.85;1.80;;;19.60;68.80;;;;;;5002083;28;19988;-34
2022/09/14 11:44:38;;;;;;;3.05;1.88;;;19.60;68.90;;;;;;5001798;28;20082;-34
2022/09/14 11:47:08;;;;;;;2.67;1.70;;;19.60;68.90;;;;;;5002412;28;20194;-34
2022/09/14 11:49:46;;;;;;;3.30;1.83;;;19.60;68.90;;;;;;4985872;28;20030;-34
2022/09/14 11:52:23;;;;;;;3.45;1.60;;;19.60;68.90;;;;;;5002101;28;20121;-34
2022/09/14 11:54:50;;;;;;;2.47;1.70;;;19.60;68.90;;;;;;5002102;28;20797;-34
2022/09/14 11:57:19;;;;;;;2.50;1.48;;;19.60;68.90;;;;;;5014613;28;20018;-34
2022/09/14 11:59:49;;;;;;;2.88;1.73;;;19.60;68.90;;;;;;4986242;28;20045;-34
2022/09/14 12:02:25;;;;;;;2.55;1.65;;;19.60;68.80;;;;;;4985501;28;20022;-34
2022/09/14 12:05:07;;;;;;;3.33;1.65;;;19.60;68.90;;;;;;5002118;28;20128;-34
2022/09/14 12:07:41;;;;;;;2.97;1.50;;;19.60;68.80;;;;;;5002981;28;20034;-34
2022/09/14 12:10:16;;;;;;;2.35;1.50;;;19.60;68.80;;;;;;5021518;28;20181;-34
2022/09/14 12:12:44;;;;;;;2.55;1.58;;;19.60;68.80;;;;;;5069942;28;20100;-34
2022/09/14 12:15:36;;;;;;;2.55;1.70;;;19.60;68.80;;;;;;5065914;28;20045;-34
2022/09/14 12:18:05;;;;;;;2.08;1.55;;;19.60;68.70;;;;;;5065821;28;20070;-34
2022/09/14 12:20:41;;;;;;;1.85;1.73;;;19.60;68.80;;;;;;5096866;28;20036;-34
2022/09/14 12:23:28;;;;;;;2.88;1.80;;;19.60;68.80;;;;;;5085700;28;20027;-34
2022/09/14 12:26:01;;;;;;;2.85;1.73;;;19.60;68.80;;;;;;5085554;28;20020;-34
2022/09/14 12:28:38;;;;;;;2.92;1.60;;;19.60;68.80;;;;;;5084783;28;20036;-34
2022/09/14 12:31:04;;;;;;;2.47;1.63;;;19.60;68.70;;;;;;5103882;28;20048;-34
2022/09/14 12:33:33;;;;;;;2.20;1.50;;;19.60;68.70;;;;;;5103365;28;20043;-34
2022/09/14 12:36:05;;;;;;;2.10;1.55;;;19.60;68.70;;;;;;5104045;28;20086;-34
2022/09/14 12:38:37;;;;;;;2.63;1.60;;;19.60;68.80;;;;;;5103896;28;20034;-34
2022/09/14 12:41:35;;;;;;;2.13;1.70;;;19.60;68.70;;;;;;5094678;28;20040;-34
2022/09/14 12:44:01;;;;;;;2.53;1.67;;;19.60;68.80;;;;;;5062822;28;20047;-34
2022/09/14 12:46:30;;;;;;;1.88;1.50;;;19.60;68.70;;;;;;5063602;28;20072;-34
2022/09/14 12:49:21;;;;;;;2.17;1.65;;;19.60;68.70;;;;;;5063447;28;20036;-34
2022/09/14 12:51:47;;;;;;;2.20;1.48;;;19.60;68.70;;;;;;5062979;28;20048;-34
2022/09/14 12:54:41;;;;;;;1.60;1.50;;;19.60;68.60;;;;;;5046444;28;20064;-34
2022/09/14 12:57:44;;;;;;;2.08;1.65;;;19.60;68.70;;;;;;5063291;28;20024;-34
2022/09/14 13:00:13;;;;;;;3.95;1.80;;;19.60;68.70;;;;;;5083172;28;20024;-35
2022/09/14 13:02:55;;;;;;;2.33;1.65;;;19.60;68.50;;;;;;5083199;28;20028;-34
2022/09/14 13:05:24;;;;;;;2.40;1.80;;;19.60;68.60;;;;;;5082708;28;20028;-34
2022/09/14 13:07:50;;;;;;;2.42;1.67;;;19.60;68.60;;;;;;5065164;28;20020;-34
2022/09/14 13:10:34;;;;;;;3.10;1.50;;;19.60;68.60;;;;;;5081690;28;20052;-34
2022/09/14 13:13:01;;;;;;;3.03;1.50;;;19.60;68.60;;;;;;5071586;28;20067;-34